Laguna, NM (87026)

1:08 PM MST on March 04, 2015 (GMT -0700)
Old Laguna Sub | Change Station
CLOSE
Current Station
Personal Weather Station
Location: New Mexico, NM
Elevation: 5820 ft
Nearby Weather Stations

Elev 5820 ft 35.05 °N, 107.37 °W | Updated 3 minutes ago

Mostly Cloudy
Mostly Cloudy
46.4 °F
Feels Like 42 °F
N
7.8
Wind Variable Wind from NNW
Gusts 10.3 mph

Today
High -- | Low -- °F
--% Chance of Precip.
Yesterday
High -- | Low -- °F
Precip. -- in
6:35 AM 6:07 PM
Waxing Gibbous, 99% visible
Pressure 29.99 in
Visibility 10.0 miles
Clouds Scattered Clouds 4300 ft
Overcast 5500 ft
Windchill 42 °F
Dew Point 18 °F
Humidity 32%
Rainfall 0.00 in
Snow Depth Not available.
UV 2 out of 12
Pollen 6.20 out of 12
Air Quality Not available.
Flu Activity Not available.
METAR KGNT 041935Z AUTO 35006KT 10SM SCT043 OVC055 05/M07 A2999 RMK AO2 T00541073

More Conditions Fewer Conditions

Pressure 29.99 in
Visibility 10.0 miles
Clouds Scattered Clouds 4300 ft
Overcast 5500 ft
Windchill 42 °F
Dew Point 18 °F
Humidity 32%
Rainfall 0.00 in
Snow Depth Not available.
UV 2 out of 12
Pollen 6.20 out of 12
Air Quality Not available.
Flu Activity Not available.
METAR KGNT 041935Z AUTO 35006KT 10SM SCT043 OVC055 05/M07 A2999 RMK AO2 T00541073

More Conditions Fewer Conditions

10-Day Weather Forecast

Almanac

Astronomy

Mar. 04, 2015 Rise Set
Actual Time
Civil Twilight
Nautical Twilight
Astronomical Twilight
Moon
Length of Visible Light
Length of Day
Tomorrow will be .
, % of the Moon is Illuminated

Today's Extremes

State Highs State Lows

Community

WunderPhotos

Upload Photos

1,802,567 photos uploaded!

WunderBlogs® & News

Nearby

Air Quality

  Air Quality AQ Index Pollutant
Not available.

Snow Depth

Station Depth Elevation

Earthquake Activity

City Distance Mag. Time & Date
Minimum magnitude displayed is 2.5.

Coastal Water Temperatures

Place Temperature

Nearby Weather Stations